METAR Data
IDs: Format: Raw Decoded Include TAF

Data at: 0159 UTC 01 Mar 2021

KMUT 010155Z AUTO 30009KT 10SM SCT016 01/M01 A3004 RMK AO2